sensor_id;sensor_type;location;lat;lon;timestamp;pressure;altitude;pressure_sealevel;temperature;humidity
76257;BME280;65074;50.436;8.672;2024-03-29T00:00:55;97598.13;;;4.05;100.00
76257;BME280;65074;50.436;8.672;2024-03-29T00:03:21;97604.69;;;3.97;100.00
76257;BME280;65074;50.436;8.672;2024-03-29T00:05:46;97604.44;;;3.99;100.00
76257;BME280;65074;50.436;8.672;2024-03-29T00:08:11;97600.41;;;3.96;100.00
76257;BME280;65074;50.436;8.672;2024-03-29T00:10:37;97582.84;;;3.95;100.00
76257;BME280;65074;50.436;8.672;2024-03-29T00:13:02;97578.31;;;3.95;100.00
76257;BME280;65074;50.436;8.672;2024-03-29T00:15:27;97574.06;;;3.94;100.00
76257;BME280;65074;50.436;8.672;2024-03-29T00:17:53;97563.50;;;4.00;100.00
76257;BME280;65074;50.436;8.672;2024-03-29T00:20:18;97563.22;;;4.01;100.00
76257;BME280;65074;50.436;8.672;2024-03-29T00:22:46;97563.53;;;4.05;100.00
76257;BME280;65074;50.436;8.672;2024-03-29T00:25:12;97567.88;;;4.16;100.00
76257;BME280;65074;50.436;8.672;2024-03-29T00:27:37;97550.13;;;4.21;100.00
76257;BME280;65074;50.436;8.672;2024-03-29T00:30:03;97551.50;;;4.29;100.00
76257;BME280;65074;50.436;8.672;2024-03-29T00:32:28;97551.84;;;4.37;100.00
76257;BME280;65074;50.436;8.672;2024-03-29T00:34:54;97554.50;;;4.37;100.00
76257;BME280;65074;50.436;8.672;2024-03-29T00:37:20;97544.66;;;4.38;100.00
76257;BME280;65074;50.436;8.672;2024-03-29T00:39:45;97546.81;;;4.41;100.00
76257;BME280;65074;50.436;8.672;2024-03-29T00:42:11;97553.19;;;4.40;100.00
76257;BME280;65074;50.436;8.672;2024-03-29T00:44:43;97551.13;;;4.47;100.00
76257;BME280;65074;50.436;8.672;2024-03-29T00:47:09;97542.69;;;4.60;100.00
76257;BME280;65074;50.436;8.672;2024-03-29T00:49:34;97535.63;;;4.76;100.00
76257;BME280;65074;50.436;8.672;2024-03-29T00:52:01;97532.19;;;4.80;100.00
76257;BME280;65074;50.436;8.672;2024-03-29T00:54:27;97546.34;;;4.86;100.00
76257;BME280;65074;50.436;8.672;2024-03-29T00:56:52;97542.41;;;4.93;100.00
76257;BME280;65074;50.436;8.672;2024-03-29T00:59:18;97548.78;;;4.92;100.00
76257;BME280;65074;50.436;8.672;2024-03-29T01:01:43;97562.06;;;4.87;100.00
76257;BME280;65074;50.436;8.672;2024-03-29T01:04:10;97564.50;;;4.89;100.00
76257;BME280;65074;50.436;8.672;2024-03-29T01:06:35;97566.09;;;4.90;100.00
76257;BME280;65074;50.436;8.672;2024-03-29T01:09:01;97557.00;;;4.86;100.00
76257;BME280;65074;50.436;8.672;2024-03-29T01:11:26;97562.31;;;4.81;100.00
76257;BME280;65074;50.436;8.672;2024-03-29T01:13:52;97570.25;;;4.76;100.00
76257;BME280;65074;50.436;8.672;2024-03-29T01:16:18;97568.66;;;4.75;100.00
76257;BME280;65074;50.436;8.672;2024-03-29T01:18:43;97567.59;;;4.76;100.00
76257;BME280;65074;50.436;8.672;2024-03-29T01:21:09;97562.00;;;4.77;100.00
76257;BME280;65074;50.436;8.672;2024-03-29T01:23:34;97564.16;;;4.80;100.00
76257;BME280;65074;50.436;8.672;2024-03-29T01:26:00;97569.50;;;4.80;100.00
76257;BME280;65074;50.436;8.672;2024-03-29T01:28:25;97558.56;;;4.82;100.00
76257;BME280;65074;50.436;8.672;2024-03-29T01:30:54;97544.19;;;4.83;100.00
76257;BME280;65074;50.436;8.672;2024-03-29T01:33:20;97545.25;;;4.82;100.00
76257;BME280;65074;50.436;8.672;2024-03-29T01:35:46;97542.34;;;4.83;100.00
76257;BME280;65074;50.436;8.672;2024-03-29T01:38:12;97543.69;;;4.86;100.00
76257;BME280;65074;50.436;8.672;2024-03-29T01:40:37;97531.97;;;4.87;100.00
76257;BME280;65074;50.436;8.672;2024-03-29T01:43:03;97539.44;;;4.90;100.00
76257;BME280;65074;50.436;8.672;2024-03-29T01:45:29;97525.06;;;4.91;100.00
76257;BME280;65074;50.436;8.672;2024-03-29T01:47:55;97530.94;;;4.93;100.00
76257;BME280;65074;50.436;8.672;2024-03-29T01:50:20;97539.50;;;5.00;100.00
76257;BME280;65074;50.436;8.672;2024-03-29T01:52:46;97535.53;;;5.02;100.00
76257;BME280;65074;50.436;8.672;2024-03-29T01:55:13;97536.06;;;5.04;100.00
76257;BME280;65074;50.436;8.672;2024-03-29T01:57:38;97532.59;;;5.04;100.00
76257;BME280;65074;50.436;8.672;2024-03-29T02:00:06;97532.09;;;5.07;100.00
76257;BME280;65074;50.436;8.672;2024-03-29T02:02:32;97515.56;;;5.10;100.00
76257;BME280;65074;50.436;8.672;2024-03-29T02:04:58;97501.22;;;5.11;100.00
76257;BME280;65074;50.436;8.672;2024-03-29T02:07:24;97486.00;;;5.11;100.00
76257;BME280;65074;50.436;8.672;2024-03-29T02:09:50;97475.34;;;5.11;100.00
76257;BME280;65074;50.436;8.672;2024-03-29T02:12:16;97475.34;;;5.11;100.00
76257;BME280;65074;50.436;8.672;2024-03-29T02:14:41;97451.91;;;5.13;100.00
76257;BME280;65074;50.436;8.672;2024-03-29T02:17:08;97459.09;;;5.13;100.00
76257;BME280;65074;50.436;8.672;2024-03-29T02:19:33;97462.31;;;5.15;100.00
76257;BME280;65074;50.436;8.672;2024-03-29T02:21:59;97462.03;;;5.16;100.00
76257;BME280;65074;50.436;8.672;2024-03-29T02:24:26;97458.31;;;5.17;100.00
76257;BME280;65074;50.436;8.672;2024-03-29T02:26:56;97467.91;;;5.18;100.00
76257;BME280;65074;50.436;8.672;2024-03-29T02:29:21;97465.78;;;5.20;100.00
76257;BME280;65074;50.436;8.672;2024-03-29T02:31:46;97467.13;;;5.23;100.00
76257;BME280;65074;50.436;8.672;2024-03-29T02:34:12;97471.94;;;5.31;100.00
76257;BME280;65074;50.436;8.672;2024-03-29T02:36:38;97472.78;;;5.37;100.00
76257;BME280;65074;50.436;8.672;2024-03-29T02:39:03;97476.53;;;5.46;100.00
76257;BME280;65074;50.436;8.672;2024-03-29T02:41:28;97484.03;;;5.64;100.00
76257;BME280;65074;50.436;8.672;2024-03-29T02:43:55;97501.41;;;5.76;100.00
76257;BME280;65074;50.436;8.672;2024-03-29T02:46:21;97484.13;;;5.89;100.00
76257;BME280;65074;50.436;8.672;2024-03-29T02:48:46;97481.22;;;6.16;100.00
76257;BME280;65074;50.436;8.672;2024-03-29T02:51:12;97486.56;;;6.26;100.00
76257;BME280;65074;50.436;8.672;2024-03-29T02:53:37;97498.56;;;6.28;100.00
76257;BME280;65074;50.436;8.672;2024-03-29T02:56:04;97494.84;;;6.29;100.00
76257;BME280;65074;50.436;8.672;2024-03-29T02:58:29;97494.03;;;6.34;100.00
76257;BME280;65074;50.436;8.672;2024-03-29T03:00:55;97496.97;;;6.37;100.00
76257;BME280;65074;50.436;8.672;2024-03-29T03:03:26;97488.13;;;6.47;97.89
76257;BME280;65074;50.436;8.672;2024-03-29T03:05:52;97508.97;;;6.55;97.08
76257;BME280;65074;50.436;8.672;2024-03-29T03:08:19;97512.69;;;6.74;91.21
76257;BME280;65074;50.436;8.672;2024-03-29T03:11:04;97500.63;;;6.92;89.45
76257;BME280;65074;50.436;8.672;2024-03-29T03:13:30;97505.44;;;6.95;88.87
76257;BME280;65074;50.436;8.672;2024-03-29T03:15:56;97503.56;;;6.95;89.78
76257;BME280;65074;50.436;8.672;2024-03-29T03:18:21;97515.31;;;6.99;88.95
76257;BME280;65074;50.436;8.672;2024-03-29T03:20:53;97503.03;;;7.03;87.73
76257;BME280;65074;50.436;8.672;2024-03-29T03:23:20;97488.56;;;7.04;87.68
76257;BME280;65074;50.436;8.672;2024-03-29T03:25:53;97502.22;;;7.03;87.12
76257;BME280;65074;50.436;8.672;2024-03-29T03:28:18;97499.53;;;7.08;87.11
76257;BME280;65074;50.436;8.672;2024-03-29T03:30:44;97500.03;;;7.15;86.28
76257;BME280;65074;50.436;8.672;2024-03-29T03:33:09;97496.56;;;7.14;87.03
76257;BME280;65074;50.436;8.672;2024-03-29T03:35:34;97493.84;;;7.25;83.74
76257;BME280;65074;50.436;8.672;2024-03-29T03:38:00;97499.47;;;7.28;84.18
76257;BME280;65074;50.436;8.672;2024-03-29T03:40:25;97491.69;;;7.27;85.51
76257;BME280;65074;50.436;8.672;2024-03-29T03:42:50;97491.16;;;7.30;85.27
76257;BME280;65074;50.436;8.672;2024-03-29T03:45:16;97491.69;;;7.27;86.59
76257;BME280;65074;50.436;8.672;2024-03-29T03:47:41;97486.63;;;7.25;86.75
76257;BME280;65074;50.436;8.672;2024-03-29T03:50:06;97490.91;;;7.21;87.33
76257;BME280;65074;50.436;8.672;2024-03-29T03:52:32;97498.16;;;7.15;88.46
76257;BME280;65074;50.436;8.672;2024-03-29T03:54:57;97509.38;;;7.17;89.50
76257;BME280;65074;50.436;8.672;2024-03-29T03:57:23;97522.44;;;7.29;85.97
76257;BME280;65074;50.436;8.672;2024-03-29T03:59:51;97508.28;;;7.23;87.79
76257;BME280;65074;50.436;8.672;2024-03-29T04:02:16;97496.81;;;7.18;89.19
76257;BME280;65074;50.436;8.672;2024-03-29T04:04:41;97490.69;;;7.12;91.67
76257;BME280;65074;50.436;8.672;2024-03-29T04:07:07;97491.75;;;7.11;90.32
76257;BME280;65074;50.436;8.672;2024-03-29T04:09:32;97484.28;;;7.08;91.71
76257;BME280;65074;50.436;8.672;2024-03-29T04:11:57;97486.97;;;7.08;91.57
76257;BME280;65074;50.436;8.672;2024-03-29T04:14:23;97489.66;;;7.08;91.68
76257;BME280;65074;50.436;8.672;2024-03-29T04:16:48;97487.50;;;7.05;91.70
76257;BME280;65074;50.436;8.672;2024-03-29T04:19:13;97482.16;;;7.05;91.52
76257;BME280;65074;50.436;8.672;2024-03-29T04:21:39;97481.63;;;7.03;91.60
76257;BME280;65074;50.436;8.672;2024-03-29T04:24:04;97480.53;;;7.04;91.33
76257;BME280;65074;50.436;8.672;2024-03-29T04:26:33;97479.50;;;7.05;91.02
76257;BME280;65074;50.436;8.672;2024-03-29T04:28:58;97481.63;;;7.03;91.63
76257;BME280;65074;50.436;8.672;2024-03-29T04:31:23;97486.44;;;7.01;92.35
76257;BME280;65074;50.436;8.672;2024-03-29T04:33:49;97495.78;;;7.04;91.03
76257;BME280;65074;50.436;8.672;2024-03-29T04:36:14;97495.53;;;7.05;91.46
76257;BME280;65074;50.436;8.672;2024-03-29T04:38:39;97481.63;;;7.03;91.59
76257;BME280;65074;50.436;8.672;2024-03-29T04:41:05;97477.63;;;7.01;92.46
76257;BME280;65074;50.436;8.672;2024-03-29T04:43:30;97475.22;;;6.99;92.86
76257;BME280;65074;50.436;8.672;2024-03-29T04:48:30;97466.97;;;6.96;93.71
76257;BME280;65074;50.436;8.672;2024-03-29T04:50:55;97467.22;;;6.94;93.96
76257;BME280;65074;50.436;8.672;2024-03-29T04:53:22;97457.59;;;6.93;93.33
76257;BME280;65074;50.436;8.672;2024-03-29T04:55:53;97454.16;;;6.88;94.94
76257;BME280;65074;50.436;8.672;2024-03-29T04:58:21;97446.41;;;6.86;95.43
76257;BME280;65074;50.436;8.672;2024-03-29T05:00:47;97456.00;;;6.87;96.00
76257;BME280;65074;50.436;8.672;2024-03-29T05:03:13;97447.19;;;6.87;95.10
76257;BME280;65074;50.436;8.672;2024-03-29T05:05:38;97445.84;;;6.89;96.70
76257;BME280;65074;50.436;8.672;2024-03-29T05:08:04;97443.97;;;6.90;97.03
76257;BME280;65074;50.436;8.672;2024-03-29T05:10:29;97438.41;;;6.86;99.53
76257;BME280;65074;50.436;8.672;2024-03-29T05:12:55;97442.41;;;6.84;98.58
76257;BME280;65074;50.436;8.672;2024-03-29T05:15:20;97445.09;;;6.84;99.58
76257;BME280;65074;50.436;8.672;2024-03-29T05:17:45;97449.09;;;6.86;99.62
76257;BME280;65074;50.436;8.672;2024-03-29T05:20:11;97452.81;;;6.80;100.00
76257;BME280;65074;50.436;8.672;2024-03-29T05:22:36;97452.03;;;6.80;100.00
76257;BME280;65074;50.436;8.672;2024-03-29T05:25:01;97465.38;;;6.85;100.00
76257;BME280;65074;50.436;8.672;2024-03-29T05:27:28;97465.91;;;6.82;100.00
76257;BME280;65074;50.436;8.672;2024-03-29T05:29:54;97485.69;;;6.81;100.00
76257;BME280;65074;50.436;8.672;2024-03-29T05:32:19;97504.13;;;6.82;100.00
76257;BME280;65074;50.436;8.672;2024-03-29T05:34:44;97503.88;;;6.84;100.00
76257;BME280;65074;50.436;8.672;2024-03-29T05:37:10;97506.78;;;6.82;100.00
76257;BME280;65074;50.436;8.672;2024-03-29T05:39:35;97509.47;;;6.82;100.00
76257;BME280;65074;50.436;8.672;2024-03-29T05:42:00;97492.09;;;6.80;100.00
76257;BME280;65074;50.436;8.672;2024-03-29T05:44:27;97493.19;;;6.74;100.00
76257;BME280;65074;50.436;8.672;2024-03-29T05:46:52;97502.28;;;6.73;100.00
76257;BME280;65074;50.436;8.672;2024-03-29T05:49:17;97496.13;;;6.67;100.00
76257;BME280;65074;50.436;8.672;2024-03-29T05:51:43;97499.88;;;6.66;100.00
76257;BME280;65074;50.436;8.672;2024-03-29T05:54:08;97497.47;;;6.65;100.00
76257;BME280;65074;50.436;8.672;2024-03-29T05:56:34;97512.69;;;6.64;100.00
76257;BME280;65074;50.436;8.672;2024-03-29T05:58:59;97511.63;;;6.65;100.00
76257;BME280;65074;50.436;8.672;2024-03-29T06:01:24;97519.91;;;6.74;100.00
76257;BME280;65074;50.436;8.672;2024-03-29T06:03:50;97515.34;;;6.74;100.00
76257;BME280;65074;50.436;8.672;2024-03-29T06:06:20;97523.94;;;6.76;100.00
76257;BME280;65074;50.436;8.672;2024-03-29T06:08:49;97521.25;;;6.76;100.00
76257;BME280;65074;50.436;8.672;2024-03-29T06:11:14;97522.59;;;6.79;100.00
76257;BME280;65074;50.436;8.672;2024-03-29T06:13:39;97519.09;;;6.78;100.00
76257;BME280;65074;50.436;8.672;2024-03-29T06:16:28;97530.84;;;6.77;100.00
76257;BME280;65074;50.436;8.672;2024-03-29T06:19:12;97532.19;;;6.75;100.00
76257;BME280;65074;50.436;8.672;2024-03-29T06:21:38;97537.81;;;6.78;100.00
76257;BME280;65074;50.436;8.672;2024-03-29T06:24:11;97537.53;;;6.75;100.00
76257;BME280;65074;50.436;8.672;2024-03-29T06:26:40;97540.22;;;6.75;100.00
76257;BME280;65074;50.436;8.672;2024-03-29T06:29:06;97539.41;;;6.69;100.00
76257;BME280;65074;50.436;8.672;2024-03-29T06:31:34;97537.53;;;6.70;100.00
76257;BME280;65074;50.436;8.672;2024-03-29T06:33:59;97529.00;;;6.68;100.00
76257;BME280;65074;50.436;8.672;2024-03-29T06:36:25;97532.19;;;6.65;100.00
76257;BME280;65074;50.436;8.672;2024-03-29T06:38:51;97517.25;;;6.64;100.00
76257;BME280;65074;50.436;8.672;2024-03-29T06:41:16;97526.06;;;6.64;100.00
76257;BME280;65074;50.436;8.672;2024-03-29T06:43:42;97530.63;;;6.64;100.00
76257;BME280;65074;50.436;8.672;2024-03-29T06:46:11;97526.34;;;6.63;100.00
76257;BME280;65074;50.436;8.672;2024-03-29T06:48:36;97525.28;;;6.64;100.00
76257;BME280;65074;50.436;8.672;2024-03-29T06:51:02;97534.63;;;6.66;100.00
76257;BME280;65074;50.436;8.672;2024-03-29T06:53:28;97535.69;;;6.70;100.00
76257;BME280;65074;50.436;8.672;2024-03-29T06:55:55;97534.63;;;6.71;100.00
76257;BME280;65074;50.436;8.672;2024-03-29T06:58:21;97541.81;;;6.71;100.00
76257;BME280;65074;50.436;8.672;2024-03-29T07:00:47;97542.63;;;6.71;100.00
76257;BME280;65074;50.436;8.672;2024-03-29T07:03:15;97533.28;;;6.79;100.00
76257;BME280;65074;50.436;8.672;2024-03-29T07:05:40;97541.81;;;6.86;100.00
76257;BME280;65074;50.436;8.672;2024-03-29T07:08:06;97543.41;;;6.87;100.00
76257;BME280;65074;50.436;8.672;2024-03-29T07:10:31;97539.91;;;6.91;100.00
76257;BME280;65074;50.436;8.672;2024-03-29T07:12:56;97540.72;;;6.97;100.00
76257;BME280;65074;50.436;8.672;2024-03-29T07:15:22;97548.19;;;7.00;100.00
76257;BME280;65074;50.436;8.672;2024-03-29T07:17:47;97541.22;;;7.04;100.00
76257;BME280;65074;50.436;8.672;2024-03-29T07:20:15;97542.28;;;7.13;100.00
76257;BME280;65074;50.436;8.672;2024-03-29T07:22:40;97549.75;;;7.16;100.00
76257;BME280;65074;50.436;8.672;2024-03-29T07:25:06;97547.88;;;7.16;100.00
76257;BME280;65074;50.436;8.672;2024-03-29T07:27:32;97554.84;;;7.22;100.00
76257;BME280;65074;50.436;8.672;2024-03-29T07:30:00;97561.00;;;7.18;100.00
76257;BME280;65074;50.436;8.672;2024-03-29T07:32:29;97562.34;;;7.15;100.00
76257;BME280;65074;50.436;8.672;2024-03-29T07:34:54;97554.31;;;7.15;100.00
76257;BME280;65074;50.436;8.672;2024-03-29T07:37:23;97558.56;;;7.21;100.00
76257;BME280;65074;50.436;8.672;2024-03-29T07:39:48;97555.06;;;7.26;100.00
76257;BME280;65074;50.436;8.672;2024-03-29T07:42:14;97561.22;;;7.27;100.00
76257;BME280;65074;50.436;8.672;2024-03-29T07:44:39;97573.53;;;7.28;100.00
76257;BME280;65074;50.436;8.672;2024-03-29T07:47:04;97569.53;;;7.25;100.00
76257;BME280;65074;50.436;8.672;2024-03-29T07:49:30;97575.94;;;7.24;100.00
76257;BME280;65074;50.436;8.672;2024-03-29T07:51:55;97575.13;;;7.29;100.00
76257;BME280;65074;50.436;8.672;2024-03-29T07:54:20;97571.94;;;7.27;100.00
76257;BME280;65074;50.436;8.672;2024-03-29T07:56:46;97566.56;;;7.32;100.00
76257;BME280;65074;50.436;8.672;2024-03-29T07:59:11;97565.50;;;7.38;100.00
76257;BME280;65074;50.436;8.672;2024-03-29T08:01:36;97571.88;;;7.42;100.00
76257;BME280;65074;50.436;8.672;2024-03-29T08:04:02;97576.38;;;7.56;100.00
76257;BME280;65074;50.436;8.672;2024-03-29T08:06:27;97568.31;;;7.71;100.00
76257;BME280;65074;50.436;8.672;2024-03-29T08:08:53;97557.25;;;7.83;100.00
76257;BME280;65074;50.436;8.672;2024-03-29T08:11:18;97558.81;;;7.94;100.00
76257;BME280;65074;50.436;8.672;2024-03-29T08:13:44;97559.03;;;8.03;100.00
76257;BME280;65074;50.436;8.672;2024-03-29T08:16:09;97554.75;;;8.07;100.00
76257;BME280;65074;50.436;8.672;2024-03-29T08:18:36;97553.38;;;8.09;100.00
76257;BME280;65074;50.436;8.672;2024-03-29T08:21:02;97536.75;;;8.12;100.00
76257;BME280;65074;50.436;8.672;2024-03-29T08:23:28;97542.38;;;8.11;100.00
76257;BME280;65074;50.436;8.672;2024-03-29T08:25:54;97548.56;;;8.11;100.00
76257;BME280;65074;50.436;8.672;2024-03-29T08:28:23;97535.94;;;8.17;100.00
76257;BME280;65074;50.436;8.672;2024-03-29T08:31:03;97546.34;;;8.18;100.00
76257;BME280;65074;50.436;8.672;2024-03-29T08:33:28;97542.56;;;8.24;100.00
76257;BME280;65074;50.436;8.672;2024-03-29T08:35:55;97551.38;;;8.30;100.00
76257;BME280;65074;50.436;8.672;2024-03-29T08:38:21;97555.09;;;8.39;100.00
76257;BME280;65074;50.436;8.672;2024-03-29T08:40:47;97556.34;;;8.52;100.00
76257;BME280;65074;50.436;8.672;2024-03-29T08:43:14;97557.69;;;8.49;100.00
76257;BME280;65074;50.436;8.672;2024-03-29T08:45:40;97559.06;;;8.46;100.00
76257;BME280;65074;50.436;8.672;2024-03-29T08:48:08;97560.09;;;8.50;100.00
76257;BME280;65074;50.436;8.672;2024-03-29T08:50:35;97558.47;;;8.49;100.00
76257;BME280;65074;50.436;8.672;2024-03-29T08:53:03;97568.59;;;8.58;100.00
76257;BME280;65074;50.436;8.672;2024-03-29T08:55:30;97565.38;;;8.61;100.00
76257;BME280;65074;50.436;8.672;2024-03-29T08:58:00;97566.19;;;8.61;100.00
76257;BME280;65074;50.436;8.672;2024-03-29T09:00:30;97580.66;;;8.60;100.00
76257;BME280;65074;50.436;8.672;2024-03-29T09:02:55;97581.97;;;8.63;100.00
76257;BME280;65074;50.436;8.672;2024-03-29T09:05:21;97585.41;;;8.68;100.00
76257;BME280;65074;50.436;8.672;2024-03-29T09:07:47;97592.06;;;8.76;100.00
76257;BME280;65074;50.436;8.672;2024-03-29T09:10:13;97596.28;;;8.82;100.00
76257;BME280;65074;50.436;8.672;2024-03-29T09:12:38;97590.31;;;8.90;100.00
76257;BME280;65074;50.436;8.672;2024-03-29T09:15:05;97598.63;;;8.93;100.00
76257;BME280;65074;50.436;8.672;2024-03-29T09:17:39;97604.47;;;9.00;100.00
76257;BME280;65074;50.436;8.672;2024-03-29T09:20:05;97612.72;;;9.04;100.00
76257;BME280;65074;50.436;8.672;2024-03-29T09:22:30;97616.47;;;9.08;100.00
76257;BME280;65074;50.436;8.672;2024-03-29T09:24:56;97619.66;;;9.10;100.00
76257;BME280;65074;50.436;8.672;2024-03-29T09:27:21;97623.59;;;9.18;100.00
76257;BME280;65074;50.436;8.672;2024-03-29T09:29:49;97621.69;;;9.23;100.00
76257;BME280;65074;50.436;8.672;2024-03-29T09:32:15;97625.16;;;9.24;100.00
76257;BME280;65074;50.436;8.672;2024-03-29T09:34:45;97622.16;;;9.30;100.00
76257;BME280;65074;50.436;8.672;2024-03-29T09:37:10;97620.44;;;9.39;100.00
76257;BME280;65074;50.436;8.672;2024-03-29T09:39:35;97624.69;;;9.45;100.00
76257;BME280;65074;50.436;8.672;2024-03-29T09:42:02;97618.97;;;9.52;100.00
76257;BME280;65074;50.436;8.672;2024-03-29T09:44:31;97618.88;;;9.62;100.00
76257;BME280;65074;50.436;8.672;2024-03-29T09:47:02;97622.81;;;9.69;100.00
76257;BME280;65074;50.436;8.672;2024-03-29T09:49:29;97616.16;;;9.86;100.00
76257;BME280;65074;50.436;8.672;2024-03-29T09:51:56;97619.72;;;10.05;100.00
76257;BME280;65074;50.436;8.672;2024-03-29T09:54:22;97613.81;;;10.26;100.00
76257;BME280;65074;50.436;8.672;2024-03-29T09:56:47;97631.59;;;10.41;100.00
76257;BME280;65074;50.436;8.672;2024-03-29T09:59:13;97622.28;;;10.52;100.00
76257;BME280;65074;50.436;8.672;2024-03-29T10:01:38;97634.34;;;10.55;100.00
76257;BME280;65074;50.436;8.672;2024-03-29T10:04:05;97626.94;;;10.65;100.00
76257;BME280;65074;50.436;8.672;2024-03-29T10:06:34;97614.44;;;10.74;100.00
76257;BME280;65074;50.436;8.672;2024-03-29T10:09:01;97638.59;;;10.61;100.00
76257;BME280;65074;50.436;8.672;2024-03-29T10:11:26;97631.59;;;10.60;100.00
76257;BME280;65074;50.436;8.672;2024-03-29T10:13:51;97624.72;;;10.54;100.00
76257;BME280;65074;50.436;8.672;2024-03-29T10:16:20;97627.59;;;10.57;100.00
76257;BME280;65074;50.436;8.672;2024-03-29T10:18:47;97624.41;;;10.55;100.00
76257;BME280;65074;50.436;8.672;2024-03-29T10:21:13;97627.66;;;10.52;100.00
76257;BME280;65074;50.436;8.672;2024-03-29T10:23:38;97648.31;;;10.57;100.00
76257;BME280;65074;50.436;8.672;2024-03-29T10:26:05;97637.50;;;10.43;100.00
76257;BME280;65074;50.436;8.672;2024-03-29T10:28:32;97636.09;;;10.45;100.00
76257;BME280;65074;50.436;8.672;2024-03-29T10:30:58;97648.16;;;10.48;100.00
76257;BME280;65074;50.436;8.672;2024-03-29T10:33:28;97663.28;;;10.44;100.00
76257;BME280;65074;50.436;8.672;2024-03-29T10:35:54;97656.75;;;10.31;100.00
76257;BME280;65074;50.436;8.672;2024-03-29T10:38:21;97657.59;;;10.27;100.00
76257;BME280;65074;50.436;8.672;2024-03-29T10:40:47;97649.00;;;10.25;100.00
76257;BME280;65074;50.436;8.672;2024-03-29T10:43:14;97652.00;;;10.42;100.00
76257;BME280;65074;50.436;8.672;2024-03-29T10:45:42;97649.19;;;10.52;100.00
76257;BME280;65074;50.436;8.672;2024-03-29T10:48:09;97656.66;;;10.55;100.00
76257;BME280;65074;50.436;8.672;2024-03-29T10:50:38;97644.84;;;10.56;100.00
76257;BME280;65074;50.436;8.672;2024-03-29T10:53:06;97637.66;;;10.52;100.00
76257;BME280;65074;50.436;8.672;2024-03-29T10:55:33;97644.47;;;10.63;100.00
76257;BME280;65074;50.436;8.672;2024-03-29T10:58:00;97636.03;;;10.69;100.00
76257;BME280;65074;50.436;8.672;2024-03-29T11:00:29;97630.22;;;10.81;100.00
76257;BME280;65074;50.436;8.672;2024-03-29T11:06:04;97630.13;;;10.86;100.00
76257;BME280;65074;50.436;8.672;2024-03-29T11:08:34;97640.31;;;10.70;100.00
76257;BME280;65074;50.436;8.672;2024-03-29T11:11:04;97651.38;;;10.50;100.00
76257;BME280;65074;50.436;8.672;2024-03-29T11:13:47;97641.25;;;10.42;100.00
76257;BME280;65074;50.436;8.672;2024-03-29T11:16:15;97630.81;;;10.22;100.00
76257;BME280;65074;50.436;8.672;2024-03-29T11:18:46;97619.63;;;10.33;100.00
76257;BME280;65074;50.436;8.672;2024-03-29T11:21:13;97611.47;;;10.57;100.00
76257;BME280;65074;50.436;8.672;2024-03-29T11:23:48;97613.03;;;10.77;100.00
76257;BME280;65074;50.436;8.672;2024-03-29T11:26:14;97615.81;;;10.90;100.00
76257;BME280;65074;50.436;8.672;2024-03-29T11:28:40;97620.91;;;10.73;100.00
76257;BME280;65074;50.436;8.672;2024-03-29T11:31:08;97627.88;;;10.74;100.00
76257;BME280;65074;50.436;8.672;2024-03-29T11:33:45;97634.44;;;10.50;100.00
76257;BME280;65074;50.436;8.672;2024-03-29T11:38:51;97642.06;;;10.42;100.00
76257;BME280;65074;50.436;8.672;2024-03-29T11:41:18;97646.34;;;10.43;100.00
76257;BME280;65074;50.436;8.672;2024-03-29T11:43:44;97649.63;;;10.40;100.00
76257;BME280;65074;50.436;8.672;2024-03-29T11:46:12;97635.72;;;10.52;100.00
76257;BME280;65074;50.436;8.672;2024-03-29T11:48:39;97644.41;;;10.49;100.00
76257;BME280;65074;50.436;8.672;2024-03-29T11:51:06;97650.28;;;10.51;100.00
76257;BME280;65074;50.436;8.672;2024-03-29T11:53:34;97674.69;;;10.36;100.00
76257;BME280;65074;50.436;8.672;2024-03-29T11:56:01;97701.06;;;10.34;100.00
76257;BME280;65074;50.436;8.672;2024-03-29T11:58:28;97715.88;;;10.31;100.00
76257;BME280;65074;50.436;8.672;2024-03-29T12:00:55;97710.38;;;10.18;100.00
76257;BME280;65074;50.436;8.672;2024-03-29T12:03:22;97713.94;;;10.08;100.00
76257;BME280;65074;50.436;8.672;2024-03-29T12:05:50;97703.75;;;10.05;100.00
76257;BME280;65074;50.436;8.672;2024-03-29T12:08:16;97690.88;;;10.07;100.00
76257;BME280;65074;50.436;8.672;2024-03-29T12:10:41;97678.81;;;10.05;100.00
76257;BME280;65074;50.436;8.672;2024-03-29T12:13:08;97676.38;;;10.03;100.00
76257;BME280;65074;50.436;8.672;2024-03-29T12:15:34;97676.38;;;10.03;100.00
76257;BME280;65074;50.436;8.672;2024-03-29T12:18:01;97666.69;;;10.07;100.00
76257;BME280;65074;50.436;8.672;2024-03-29T12:20:31;97663.19;;;10.07;100.00
76257;BME280;65074;50.436;8.672;2024-03-29T12:23:08;97654.19;;;10.21;100.00
76257;BME280;65074;50.436;8.672;2024-03-29T12:25:35;97653.31;;;10.26;100.00
76257;BME280;65074;50.436;8.672;2024-03-29T12:28:01;97669.72;;;10.24;100.00
76257;BME280;65074;50.436;8.672;2024-03-29T12:30:27;97667.09;;;10.19;100.00
76257;BME280;65074;50.436;8.672;2024-03-29T12:33:06;97659.47;;;10.03;100.00
76257;BME280;65074;50.436;8.672;2024-03-29T12:35:32;97667.81;;;10.01;100.00
76257;BME280;65074;50.436;8.672;2024-03-29T12:37:59;97651.47;;;9.98;100.00
76257;BME280;65074;50.436;8.672;2024-03-29T12:40:26;97629.97;;;9.98;100.00
76257;BME280;65074;50.436;8.672;2024-03-29T12:42:53;97637.78;;;9.99;100.00
76257;BME280;65074;50.436;8.672;2024-03-29T12:45:19;97663.31;;;9.97;100.00
76257;BME280;65074;50.436;8.672;2024-03-29T12:47:49;97692.34;;;9.95;100.00
76257;BME280;65074;50.436;8.672;2024-03-29T12:50:26;97698.84;;;9.89;100.00
76257;BME280;65074;50.436;8.672;2024-03-29T12:52:54;97699.94;;;9.88;100.00
76257;BME280;65074;50.436;8.672;2024-03-29T12:55:20;97707.41;;;9.91;100.00
76257;BME280;65074;50.436;8.672;2024-03-29T12:57:45;97708.28;;;9.86;100.00
76257;BME280;65074;50.436;8.672;2024-03-29T13:00:12;97713.13;;;9.84;100.00
76257;BME280;65074;50.436;8.672;2024-03-29T13:02:37;97721.50;;;9.82;100.00
76257;BME280;65074;50.436;8.672;2024-03-29T13:05:04;97719.88;;;9.81;100.00